sensor_id;sensor_type;location;lat;lon;timestamp;P1;durP1;ratioP1;P2;durP2;ratioP2
83190;SDS011;73087;49.924;22.080;2023-11-21T00:00:42;4.05;;;3.10;;
83190;SDS011;73087;49.924;22.080;2023-11-21T00:01:42;7.47;;;3.63;;
83190;SDS011;73087;49.924;22.080;2023-11-21T00:02:43;5.85;;;3.58;;
83190;SDS011;73087;49.924;22.080;2023-11-21T00:03:44;4.75;;;3.75;;
83190;SDS011;73087;49.924;22.080;2023-11-21T00:04:46;6.90;;;3.97;;
83190;SDS011;73087;49.924;22.080;2023-11-21T00:05:47;5.38;;;3.67;;
83190;SDS011;73087;49.924;22.080;2023-11-21T00:06:48;6.15;;;3.35;;
83190;SDS011;73087;49.924;22.080;2023-11-21T00:07:48;4.75;;;3.53;;
83190;SDS011;73087;49.924;22.080;2023-11-21T00:08:49;4.88;;;3.28;;
83190;SDS011;73087;49.924;22.080;2023-11-21T00:09:49;4.85;;;3.30;;
83190;SDS011;73087;49.924;22.080;2023-11-21T00:10:50;5.15;;;3.38;;
83190;SDS011;73087;49.924;22.080;2023-11-21T00:11:50;5.95;;;3.47;;
83190;SDS011;73087;49.924;22.080;2023-11-21T00:12:51;5.47;;;3.40;;
83190;SDS011;73087;49.924;22.080;2023-11-21T00:13:52;5.80;;;3.70;;
83190;SDS011;73087;49.924;22.080;2023-11-21T00:14:52;6.38;;;3.83;;
83190;SDS011;73087;49.924;22.080;2023-11-21T00:15:53;6.35;;;3.90;;
83190;SDS011;73087;49.924;22.080;2023-11-21T00:16:53;5.25;;;3.28;;
83190;SDS011;73087;49.924;22.080;2023-11-21T00:17:54;6.00;;;3.88;;
83190;SDS011;73087;49.924;22.080;2023-11-21T00:18:54;5.90;;;3.67;;
83190;SDS011;73087;49.924;22.080;2023-11-21T00:19:56;5.30;;;3.35;;
83190;SDS011;73087;49.924;22.080;2023-11-21T00:20:57;6.00;;;3.38;;
83190;SDS011;73087;49.924;22.080;2023-11-21T00:21:57;5.32;;;3.60;;
83190;SDS011;73087;49.924;22.080;2023-11-21T00:22:58;5.38;;;3.78;;
83190;SDS011;73087;49.924;22.080;2023-11-21T00:23:58;5.55;;;3.50;;
83190;SDS011;73087;49.924;22.080;2023-11-21T00:24:59;6.28;;;3.83;;
83190;SDS011;73087;49.924;22.080;2023-11-21T00:25:59;6.57;;;3.50;;
83190;SDS011;73087;49.924;22.080;2023-11-21T00:27:00;7.25;;;3.65;;
83190;SDS011;73087;49.924;22.080;2023-11-21T00:28:00;6.85;;;4.05;;
83190;SDS011;73087;49.924;22.080;2023-11-21T00:29:01;7.88;;;4.20;;
83190;SDS011;73087;49.924;22.080;2023-11-21T00:30:02;6.53;;;3.55;;
83190;SDS011;73087;49.924;22.080;2023-11-21T00:31:03;6.38;;;4.30;;
83190;SDS011;73087;49.924;22.080;2023-11-21T00:32:04;7.72;;;4.35;;
83190;SDS011;73087;49.924;22.080;2023-11-21T00:33:05;8.18;;;4.72;;
83190;SDS011;73087;49.924;22.080;2023-11-21T00:34:06;7.47;;;4.40;;
83190;SDS011;73087;49.924;22.080;2023-11-21T00:35:08;8.20;;;4.82;;
83190;SDS011;73087;49.924;22.080;2023-11-21T00:36:09;7.07;;;4.40;;
83190;SDS011;73087;49.924;22.080;2023-11-21T00:37:09;7.28;;;4.60;;
83190;SDS011;73087;49.924;22.080;2023-11-21T00:38:10;6.68;;;3.70;;
83190;SDS011;73087;49.924;22.080;2023-11-21T00:39:11;8.15;;;4.70;;
83190;SDS011;73087;49.924;22.080;2023-11-21T00:40:11;7.53;;;4.18;;
83190;SDS011;73087;49.924;22.080;2023-11-21T00:41:12;7.30;;;4.40;;
83190;SDS011;73087;49.924;22.080;2023-11-21T00:42:13;5.25;;;2.78;;
83190;SDS011;73087;49.924;22.080;2023-11-21T00:43:13;4.88;;;3.58;;
83190;SDS011;73087;49.924;22.080;2023-11-21T00:44:14;7.15;;;4.10;;
83190;SDS011;73087;49.924;22.080;2023-11-21T00:45:14;5.45;;;3.40;;
83190;SDS011;73087;49.924;22.080;2023-11-21T00:46:15;6.07;;;3.50;;
83190;SDS011;73087;49.924;22.080;2023-11-21T00:47:16;5.63;;;3.33;;
83190;SDS011;73087;49.924;22.080;2023-11-21T00:48:16;5.82;;;3.90;;
83190;SDS011;73087;49.924;22.080;2023-11-21T00:49:17;7.95;;;3.40;;
83190;SDS011;73087;49.924;22.080;2023-11-21T00:50:19;5.70;;;3.63;;
83190;SDS011;73087;49.924;22.080;2023-11-21T00:51:19;6.38;;;3.42;;
83190;SDS011;73087;49.924;22.080;2023-11-21T00:52:20;6.82;;;3.92;;
83190;SDS011;73087;49.924;22.080;2023-11-21T00:53:21;7.55;;;3.92;;
83190;SDS011;73087;49.924;22.080;2023-11-21T00:54:21;6.35;;;3.97;;
83190;SDS011;73087;49.924;22.080;2023-11-21T00:55:22;7.93;;;4.65;;
83190;SDS011;73087;49.924;22.080;2023-11-21T00:56:22;7.38;;;4.10;;
83190;SDS011;73087;49.924;22.080;2023-11-21T00:57:23;6.97;;;3.65;;
83190;SDS011;73087;49.924;22.080;2023-11-21T00:58:23;5.35;;;3.33;;
83190;SDS011;73087;49.924;22.080;2023-11-21T00:59:24;6.88;;;4.05;;
83190;SDS011;73087;49.924;22.080;2023-11-21T01:00:25;6.80;;;3.53;;
83190;SDS011;73087;49.924;22.080;2023-11-21T01:01:25;5.93;;;3.55;;
83190;SDS011;73087;49.924;22.080;2023-11-21T01:02:26;5.43;;;3.72;;
83190;SDS011;73087;49.924;22.080;2023-11-21T01:03:26;4.00;;;2.58;;
83190;SDS011;73087;49.924;22.080;2023-11-21T01:04:27;6.05;;;3.80;;
83190;SDS011;73087;49.924;22.080;2023-11-21T01:05:29;5.63;;;3.45;;
83190;SDS011;73087;49.924;22.080;2023-11-21T01:06:29;5.95;;;3.75;;
83190;SDS011;73087;49.924;22.080;2023-11-21T01:07:30;4.07;;;2.72;;
83190;SDS011;73087;49.924;22.080;2023-11-21T01:08:30;7.13;;;3.60;;
83190;SDS011;73087;49.924;22.080;2023-11-21T01:09:31;6.50;;;3.78;;
83190;SDS011;73087;49.924;22.080;2023-11-21T01:10:31;6.22;;;3.00;;
83190;SDS011;73087;49.924;22.080;2023-11-21T01:11:32;3.97;;;2.83;;
83190;SDS011;73087;49.924;22.080;2023-11-21T01:12:33;5.32;;;3.42;;
83190;SDS011;73087;49.924;22.080;2023-11-21T01:13:34;5.47;;;3.40;;
83190;SDS011;73087;49.924;22.080;2023-11-21T01:14:34;7.55;;;4.20;;
83190;SDS011;73087;49.924;22.080;2023-11-21T01:15:35;6.35;;;3.85;;
83190;SDS011;73087;49.924;22.080;2023-11-21T01:16:36;6.47;;;4.07;;
83190;SDS011;73087;49.924;22.080;2023-11-21T01:17:36;5.72;;;3.72;;
83190;SDS011;73087;49.924;22.080;2023-11-21T01:18:37;6.97;;;4.25;;
83190;SDS011;73087;49.924;22.080;2023-11-21T01:19:37;5.80;;;4.00;;
83190;SDS011;73087;49.924;22.080;2023-11-21T01:20:39;5.40;;;3.42;;
83190;SDS011;73087;49.924;22.080;2023-11-21T01:21:40;6.22;;;3.15;;
83190;SDS011;73087;49.924;22.080;2023-11-21T01:22:40;5.90;;;3.17;;
83190;SDS011;73087;49.924;22.080;2023-11-21T01:23:41;6.63;;;4.00;;
83190;SDS011;73087;49.924;22.080;2023-11-21T01:24:42;5.97;;;3.63;;
83190;SDS011;73087;49.924;22.080;2023-11-21T01:25:42;6.25;;;3.63;;
83190;SDS011;73087;49.924;22.080;2023-11-21T01:26:43;4.85;;;2.90;;
83190;SDS011;73087;49.924;22.080;2023-11-21T01:27:43;4.13;;;2.70;;
83190;SDS011;73087;49.924;22.080;2023-11-21T01:28:44;4.28;;;3.05;;
83190;SDS011;73087;49.924;22.080;2023-11-21T01:29:44;4.05;;;2.42;;
83190;SDS011;73087;49.924;22.080;2023-11-21T01:30:45;5.55;;;3.55;;
83190;SDS011;73087;49.924;22.080;2023-11-21T01:31:46;5.07;;;3.28;;
83190;SDS011;73087;49.924;22.080;2023-11-21T01:32:46;5.43;;;3.22;;
83190;SDS011;73087;49.924;22.080;2023-11-21T01:33:47;6.10;;;3.70;;
83190;SDS011;73087;49.924;22.080;2023-11-21T01:34:47;6.15;;;3.92;;
83190;SDS011;73087;49.924;22.080;2023-11-21T01:35:49;5.93;;;3.50;;
83190;SDS011;73087;49.924;22.080;2023-11-21T01:36:50;7.97;;;3.92;;
83190;SDS011;73087;49.924;22.080;2023-11-21T01:37:50;7.45;;;3.72;;
83190;SDS011;73087;49.924;22.080;2023-11-21T01:38:51;6.20;;;3.53;;
83190;SDS011;73087;49.924;22.080;2023-11-21T01:39:51;5.85;;;3.75;;
83190;SDS011;73087;49.924;22.080;2023-11-21T01:40:52;6.22;;;3.40;;
83190;SDS011;73087;49.924;22.080;2023-11-21T01:41:52;5.53;;;3.05;;
83190;SDS011;73087;49.924;22.080;2023-11-21T01:42:53;6.60;;;3.75;;
83190;SDS011;73087;49.924;22.080;2023-11-21T01:43:53;6.65;;;3.97;;
83190;SDS011;73087;49.924;22.080;2023-11-21T01:44:54;7.07;;;3.72;;
83190;SDS011;73087;49.924;22.080;2023-11-21T01:45:54;7.20;;;4.53;;
83190;SDS011;73087;49.924;22.080;2023-11-21T01:46:55;8.23;;;4.43;;
83190;SDS011;73087;49.924;22.080;2023-11-21T01:47:56;6.43;;;4.18;;
83190;SDS011;73087;49.924;22.080;2023-11-21T01:48:57;6.30;;;4.10;;
83190;SDS011;73087;49.924;22.080;2023-11-21T01:49:58;6.28;;;4.07;;
83190;SDS011;73087;49.924;22.080;2023-11-21T01:51:00;6.45;;;3.75;;
83190;SDS011;73087;49.924;22.080;2023-11-21T01:52:01;8.32;;;4.05;;
83190;SDS011;73087;49.924;22.080;2023-11-21T01:53:03;6.90;;;4.28;;
83190;SDS011;73087;49.924;22.080;2023-11-21T01:54:04;6.95;;;4.28;;
83190;SDS011;73087;49.924;22.080;2023-11-21T01:55:05;5.07;;;3.50;;
83190;SDS011;73087;49.924;22.080;2023-11-21T01:56:07;6.53;;;3.92;;
83190;SDS011;73087;49.924;22.080;2023-11-21T01:57:08;7.65;;;4.10;;
83190;SDS011;73087;49.924;22.080;2023-11-21T01:58:09;5.55;;;3.60;;
83190;SDS011;73087;49.924;22.080;2023-11-21T01:59:10;4.97;;;3.28;;
83190;SDS011;73087;49.924;22.080;2023-11-21T02:00:14;5.10;;;3.13;;
83190;SDS011;73087;49.924;22.080;2023-11-21T02:01:14;5.00;;;2.90;;
83190;SDS011;73087;49.924;22.080;2023-11-21T02:02:15;5.40;;;3.30;;
83190;SDS011;73087;49.924;22.080;2023-11-21T02:03:16;4.28;;;2.75;;
83190;SDS011;73087;49.924;22.080;2023-11-21T02:04:16;5.03;;;3.30;;
83190;SDS011;73087;49.924;22.080;2023-11-21T02:05:18;6.35;;;3.05;;
83190;SDS011;73087;49.924;22.080;2023-11-21T02:06:21;4.60;;;3.03;;
83190;SDS011;73087;49.924;22.080;2023-11-21T02:07:21;5.00;;;3.05;;
83190;SDS011;73087;49.924;22.080;2023-11-21T02:08:22;4.57;;;2.83;;
83190;SDS011;73087;49.924;22.080;2023-11-21T02:09:24;3.90;;;2.45;;
83190;SDS011;73087;49.924;22.080;2023-11-21T02:10:25;4.18;;;2.88;;
83190;SDS011;73087;49.924;22.080;2023-11-21T02:11:25;3.65;;;2.03;;
83190;SDS011;73087;49.924;22.080;2023-11-21T02:12:26;4.93;;;2.90;;
83190;SDS011;73087;49.924;22.080;2023-11-21T02:13:27;4.22;;;2.55;;
83190;SDS011;73087;49.924;22.080;2023-11-21T02:14:27;3.10;;;2.35;;
83190;SDS011;73087;49.924;22.080;2023-11-21T02:15:28;3.70;;;2.13;;
83190;SDS011;73087;49.924;22.080;2023-11-21T02:16:29;6.57;;;2.90;;
83190;SDS011;73087;49.924;22.080;2023-11-21T02:17:29;3.42;;;2.22;;
83190;SDS011;73087;49.924;22.080;2023-11-21T02:18:30;3.95;;;2.60;;
83190;SDS011;73087;49.924;22.080;2023-11-21T02:19:31;5.38;;;2.95;;
83190;SDS011;73087;49.924;22.080;2023-11-21T02:20:31;3.58;;;2.58;;
83190;SDS011;73087;49.924;22.080;2023-11-21T02:21:34;3.00;;;2.20;;
83190;SDS011;73087;49.924;22.080;2023-11-21T02:22:35;4.38;;;2.67;;
83190;SDS011;73087;49.924;22.080;2023-11-21T02:23:40;3.58;;;2.50;;
83190;SDS011;73087;49.924;22.080;2023-11-21T02:24:40;4.70;;;2.75;;
83190;SDS011;73087;49.924;22.080;2023-11-21T02:25:41;4.70;;;2.63;;
83190;SDS011;73087;49.924;22.080;2023-11-21T02:26:42;3.88;;;2.53;;
83190;SDS011;73087;49.924;22.080;2023-11-21T02:27:42;2.58;;;1.85;;
83190;SDS011;73087;49.924;22.080;2023-11-21T02:28:43;2.60;;;1.73;;
83190;SDS011;73087;49.924;22.080;2023-11-21T02:29:43;5.03;;;2.85;;
83190;SDS011;73087;49.924;22.080;2023-11-21T02:30:44;3.47;;;2.17;;
83190;SDS011;73087;49.924;22.080;2023-11-21T02:31:45;4.57;;;2.17;;
83190;SDS011;73087;49.924;22.080;2023-11-21T02:32:46;3.70;;;2.53;;
83190;SDS011;73087;49.924;22.080;2023-11-21T02:33:46;3.90;;;2.90;;
83190;SDS011;73087;49.924;22.080;2023-11-21T02:34:47;4.05;;;1.63;;
83190;SDS011;73087;49.924;22.080;2023-11-21T02:35:47;2.92;;;1.90;;
83190;SDS011;73087;49.924;22.080;2023-11-21T02:36:48;4.90;;;2.70;;
83190;SDS011;73087;49.924;22.080;2023-11-21T02:37:48;4.07;;;2.70;;
83190;SDS011;73087;49.924;22.080;2023-11-21T02:38:51;6.25;;;2.80;;
83190;SDS011;73087;49.924;22.080;2023-11-21T02:39:51;4.15;;;2.70;;
83190;SDS011;73087;49.924;22.080;2023-11-21T02:40:52;7.47;;;3.40;;
83190;SDS011;73087;49.924;22.080;2023-11-21T02:41:52;4.70;;;2.45;;
83190;SDS011;73087;49.924;22.080;2023-11-21T02:42:53;5.63;;;3.38;;
83190;SDS011;73087;49.924;22.080;2023-11-21T02:43:53;4.80;;;3.10;;
83190;SDS011;73087;49.924;22.080;2023-11-21T02:44:54;5.38;;;3.00;;
83190;SDS011;73087;49.924;22.080;2023-11-21T02:45:54;4.78;;;2.95;;
83190;SDS011;73087;49.924;22.080;2023-11-21T02:46:55;5.30;;;3.22;;
83190;SDS011;73087;49.924;22.080;2023-11-21T02:47:55;4.50;;;2.90;;
83190;SDS011;73087;49.924;22.080;2023-11-21T02:48:56;4.78;;;3.60;;
83190;SDS011;73087;49.924;22.080;2023-11-21T02:49:56;5.30;;;3.40;;
83190;SDS011;73087;49.924;22.080;2023-11-21T02:50:57;5.80;;;3.50;;
83190;SDS011;73087;49.924;22.080;2023-11-21T02:51:57;6.70;;;3.92;;
83190;SDS011;73087;49.924;22.080;2023-11-21T02:52:58;6.15;;;3.80;;
83190;SDS011;73087;49.924;22.080;2023-11-21T02:54:00;4.28;;;2.75;;
83190;SDS011;73087;49.924;22.080;2023-11-21T02:55:01;3.70;;;2.20;;
83190;SDS011;73087;49.924;22.080;2023-11-21T02:56:01;4.30;;;2.60;;
83190;SDS011;73087;49.924;22.080;2023-11-21T02:57:02;5.53;;;3.45;;
83190;SDS011;73087;49.924;22.080;2023-11-21T02:58:03;4.55;;;2.60;;
83190;SDS011;73087;49.924;22.080;2023-11-21T02:59:03;4.25;;;3.03;;
83190;SDS011;73087;49.924;22.080;2023-11-21T03:00:04;5.72;;;3.33;;
83190;SDS011;73087;49.924;22.080;2023-11-21T03:01:06;4.25;;;2.92;;
83190;SDS011;73087;49.924;22.080;2023-11-21T03:02:06;3.72;;;2.72;;
83190;SDS011;73087;49.924;22.080;2023-11-21T03:03:07;3.97;;;2.33;;
83190;SDS011;73087;49.924;22.080;2023-11-21T03:04:07;2.85;;;2.13;;
83190;SDS011;73087;49.924;22.080;2023-11-21T03:05:08;3.15;;;2.40;;
83190;SDS011;73087;49.924;22.080;2023-11-21T03:06:09;5.47;;;2.70;;
83190;SDS011;73087;49.924;22.080;2023-11-21T03:07:09;3.55;;;2.65;;
83190;SDS011;73087;49.924;22.080;2023-11-21T03:08:10;4.60;;;2.88;;
83190;SDS011;73087;49.924;22.080;2023-11-21T03:09:12;4.60;;;2.80;;
83190;SDS011;73087;49.924;22.080;2023-11-21T03:10:12;5.15;;;3.05;;
83190;SDS011;73087;49.924;22.080;2023-11-21T03:11:13;5.22;;;3.08;;
83190;SDS011;73087;49.924;22.080;2023-11-21T03:12:14;4.68;;;3.00;;
83190;SDS011;73087;49.924;22.080;2023-11-21T03:13:14;5.03;;;2.70;;
83190;SDS011;73087;49.924;22.080;2023-11-21T03:14:15;4.20;;;2.58;;
83190;SDS011;73087;49.924;22.080;2023-11-21T03:15:15;5.28;;;3.17;;
83190;SDS011;73087;49.924;22.080;2023-11-21T03:16:16;4.55;;;2.85;;
83190;SDS011;73087;49.924;22.080;2023-11-21T03:17:17;6.07;;;2.65;;
83190;SDS011;73087;49.924;22.080;2023-11-21T03:18:17;5.35;;;3.42;;
83190;SDS011;73087;49.924;22.080;2023-11-21T03:19:18;4.50;;;2.67;;
83190;SDS011;73087;49.924;22.080;2023-11-21T03:20:18;5.20;;;3.15;;
83190;SDS011;73087;49.924;22.080;2023-11-21T03:21:19;6.25;;;3.28;;
83190;SDS011;73087;49.924;22.080;2023-11-21T03:22:19;4.55;;;3.40;;
83190;SDS011;73087;49.924;22.080;2023-11-21T03:23:20;4.97;;;3.20;;
83190;SDS011;73087;49.924;22.080;2023-11-21T03:24:22;4.65;;;2.72;;
83190;SDS011;73087;49.924;22.080;2023-11-21T03:25:22;3.33;;;2.50;;
83190;SDS011;73087;49.924;22.080;2023-11-21T03:26:23;6.57;;;3.17;;
83190;SDS011;73087;49.924;22.080;2023-11-21T03:27:24;6.78;;;3.90;;
83190;SDS011;73087;49.924;22.080;2023-11-21T03:28:24;3.90;;;2.38;;
83190;SDS011;73087;49.924;22.080;2023-11-21T03:29:25;5.10;;;3.50;;
83190;SDS011;73087;49.924;22.080;2023-11-21T03:30:26;5.45;;;2.80;;
83190;SDS011;73087;49.924;22.080;2023-11-21T03:31:26;3.83;;;2.83;;
83190;SDS011;73087;49.924;22.080;2023-11-21T03:32:27;5.72;;;2.95;;
83190;SDS011;73087;49.924;22.080;2023-11-21T03:33:27;4.45;;;2.92;;
83190;SDS011;73087;49.924;22.080;2023-11-21T03:34:28;6.13;;;3.30;;
83190;SDS011;73087;49.924;22.080;2023-11-21T03:35:28;3.85;;;2.88;;
83190;SDS011;73087;49.924;22.080;2023-11-21T03:36:29;4.45;;;2.75;;
83190;SDS011;73087;49.924;22.080;2023-11-21T03:37:29;4.43;;;2.97;;
83190;SDS011;73087;49.924;22.080;2023-11-21T03:38:30;4.18;;;2.97;;
83190;SDS011;73087;49.924;22.080;2023-11-21T03:39:32;3.58;;;2.50;;
83190;SDS011;73087;49.924;22.080;2023-11-21T03:40:32;4.63;;;2.50;;
83190;SDS011;73087;49.924;22.080;2023-11-21T03:41:33;5.00;;;2.78;;
83190;SDS011;73087;49.924;22.080;2023-11-21T03:42:33;5.18;;;2.97;;
83190;SDS011;73087;49.924;22.080;2023-11-21T03:43:34;5.97;;;3.15;;
83190;SDS011;73087;49.924;22.080;2023-11-21T03:44:34;5.30;;;3.22;;
83190;SDS011;73087;49.924;22.080;2023-11-21T03:45:35;4.70;;;2.80;;
83190;SDS011;73087;49.924;22.080;2023-11-21T03:46:35;4.88;;;2.85;;
83190;SDS011;73087;49.924;22.080;2023-11-21T03:47:36;3.95;;;2.47;;
83190;SDS011;73087;49.924;22.080;2023-11-21T03:48:36;3.40;;;2.45;;
83190;SDS011;73087;49.924;22.080;2023-11-21T03:49:37;4.38;;;2.60;;
83190;SDS011;73087;49.924;22.080;2023-11-21T03:50:38;5.28;;;2.70;;
83190;SDS011;73087;49.924;22.080;2023-11-21T03:51:38;4.68;;;2.70;;
83190;SDS011;73087;49.924;22.080;2023-11-21T03:52:39;4.03;;;2.60;;
83190;SDS011;73087;49.924;22.080;2023-11-21T03:53:39;4.65;;;2.55;;
83190;SDS011;73087;49.924;22.080;2023-11-21T03:54:41;4.80;;;2.90;;
83190;SDS011;73087;49.924;22.080;2023-11-21T03:55:42;4.78;;;2.92;;
83190;SDS011;73087;49.924;22.080;2023-11-21T03:56:42;4.10;;;2.72;;
83190;SDS011;73087;49.924;22.080;2023-11-21T03:57:43;4.53;;;2.78;;
83190;SDS011;73087;49.924;22.080;2023-11-21T03:58:43;3.80;;;2.80;;
83190;SDS011;73087;49.924;22.080;2023-11-21T03:59:44;3.60;;;2.13;;
83190;SDS011;73087;49.924;22.080;2023-11-21T04:00:46;3.85;;;2.33;;
83190;SDS011;73087;49.924;22.080;2023-11-21T04:01:47;6.65;;;2.90;;
83190;SDS011;73087;49.924;22.080;2023-11-21T04:02:47;4.25;;;2.75;;
83190;SDS011;73087;49.924;22.080;2023-11-21T04:03:48;3.50;;;2.47;;
83190;SDS011;73087;49.924;22.080;2023-11-21T04:04:49;4.68;;;2.70;;
83190;SDS011;73087;49.924;22.080;2023-11-21T04:05:49;4.47;;;2.95;;
83190;SDS011;73087;49.924;22.080;2023-11-21T04:06:50;6.70;;;2.97;;
83190;SDS011;73087;49.924;22.080;2023-11-21T04:07:50;5.32;;;2.80;;
83190;SDS011;73087;49.924;22.080;2023-11-21T04:08:51;4.95;;;2.75;;
83190;SDS011;73087;49.924;22.080;2023-11-21T04:09:53;4.53;;;2.70;;
83190;SDS011;73087;49.924;22.080;2023-11-21T04:10:53;5.03;;;2.95;;
83190;SDS011;73087;49.924;22.080;2023-11-21T04:11:54;4.95;;;3.13;;
83190;SDS011;73087;49.924;22.080;2023-11-21T04:12:54;4.78;;;2.90;;
83190;SDS011;73087;49.924;22.080;2023-11-21T04:13:55;5.05;;;3.28;;
83190;SDS011;73087;49.924;22.080;2023-11-21T04:14:55;4.55;;;3.08;;
83190;SDS011;73087;49.924;22.080;2023-11-21T04:15:56;4.93;;;3.42;;
83190;SDS011;73087;49.924;22.080;2023-11-21T04:16:56;5.65;;;3.22;;
83190;SDS011;73087;49.924;22.080;2023-11-21T04:17:57;4.07;;;3.00;;
83190;SDS011;73087;49.924;22.080;2023-11-21T04:18:58;5.10;;;3.78;;
83190;SDS011;73087;49.924;22.080;2023-11-21T04:19:58;5.50;;;3.13;;
83190;SDS011;73087;49.924;22.080;2023-11-21T04:20:59;6.05;;;3.72;;
83190;SDS011;73087;49.924;22.080;2023-11-21T04:21:59;5.95;;;3.83;;
83190;SDS011;73087;49.924;22.080;2023-11-21T04:23:00;5.63;;;3.42;;
83190;SDS011;73087;49.924;22.080;2023-11-21T04:24:00;3.72;;;2.47;;
83190;SDS011;73087;49.924;22.080;2023-11-21T04:25:03;4.50;;;3.00;;
83190;SDS011;73087;49.924;22.080;2023-11-21T04:26:04;4.35;;;3.00;;
83190;SDS011;73087;49.924;22.080;2023-11-21T04:27:04;4.18;;;2.90;;
83190;SDS011;73087;49.924;22.080;2023-11-21T04:28:05;4.20;;;2.65;;
83190;SDS011;73087;49.924;22.080;2023-11-21T04:29:05;4.15;;;2.47;;
83190;SDS011;73087;49.924;22.080;2023-11-21T04:30:06;5.32;;;3.20;;
83190;SDS011;73087;49.924;22.080;2023-11-21T04:31:07;4.72;;;2.78;;
83190;SDS011;73087;49.924;22.080;2023-11-21T04:32:08;3.65;;;2.55;;
83190;SDS011;73087;49.924;22.080;2023-11-21T04:33:08;3.17;;;2.00;;
83190;SDS011;73087;49.924;22.080;2023-11-21T04:34:09;2.92;;;2.22;;
83190;SDS011;73087;49.924;22.080;2023-11-21T04:35:09;4.35;;;2.85;;
83190;SDS011;73087;49.924;22.080;2023-11-21T04:36:10;3.38;;;2.40;;
83190;SDS011;73087;49.924;22.080;2023-11-21T04:37:11;3.20;;;2.40;;
83190;SDS011;73087;49.924;22.080;2023-11-21T04:38:11;3.42;;;2.30;;
83190;SDS011;73087;49.924;22.080;2023-11-21T04:39:12;4.80;;;2.65;;
83190;SDS011;73087;49.924;22.080;2023-11-21T04:40:14;4.22;;;1.92;;
83190;SDS011;73087;49.924;22.080;2023-11-21T04:41:14;4.53;;;2.55;;
83190;SDS011;73087;49.924;22.080;2023-11-21T04:42:15;2.05;;;1.58;;
83190;SDS011;73087;49.924;22.080;2023-11-21T04:43:16;3.00;;;2.22;;
83190;SDS011;73087;49.924;22.080;2023-11-21T04:44:16;3.05;;;1.98;;
83190;SDS011;73087;49.924;22.080;2023-11-21T04:45:17;4.00;;;2.30;;
83190;SDS011;73087;49.924;22.080;2023-11-21T04:46:17;4.03;;;2.38;;
83190;SDS011;73087;49.924;22.080;2023-11-21T04:47:18;2.75;;;2.03;;
83190;SDS011;73087;49.924;22.080;2023-11-21T04:48:18;4.75;;;2.47;;
83190;SDS011;73087;49.924;22.080;2023-11-21T04:49:19;3.45;;;2.00;;
83190;SDS011;73087;49.924;22.080;2023-11-21T04:50:19;2.60;;;1.83;;
83190;SDS011;73087;49.924;22.080;2023-11-21T04:51:20;2.58;;;1.90;;
83190;SDS011;73087;49.924;22.080;2023-11-21T04:52:20;3.75;;;2.20;;
83190;SDS011;73087;49.924;22.080;2023-11-21T04:53:21;2.90;;;2.03;;
83190;SDS011;73087;49.924;22.080;2023-11-21T04:54:21;4.40;;;1.85;;
83190;SDS011;73087;49.924;22.080;2023-11-21T04:55:23;3.03;;;1.85;;
83190;SDS011;73087;49.924;22.080;2023-11-21T04:56:24;3.65;;;2.40;;
83190;SDS011;73087;49.924;22.080;2023-11-21T04:57:24;3.28;;;2.00;;
83190;SDS011;73087;49.924;22.080;2023-11-21T04:58:25;2.67;;;1.95;;
83190;SDS011;73087;49.924;22.080;2023-11-21T04:59:25;3.20;;;2.03;;
83190;SDS011;73087;49.924;22.080;2023-11-21T05:00:26;3.40;;;2.25;;
83190;SDS011;73087;49.924;22.080;2023-11-21T05:01:27;2.92;;;2.00;;
83190;SDS011;73087;49.924;22.080;2023-11-21T05:02:27;3.10;;;2.40;;
83190;SDS011;73087;49.924;22.080;2023-11-21T05:03:28;2.90;;;2.05;;
83190;SDS011;73087;49.924;22.080;2023-11-21T05:04:28;3.67;;;2.00;;
83190;SDS011;73087;49.924;22.080;2023-11-21T05:05:29;3.33;;;1.90;;
83190;SDS011;73087;49.924;22.080;2023-11-21T05:06:29;4.10;;;2.35;;
83190;SDS011;73087;49.924;22.080;2023-11-21T05:07:30;2.80;;;1.58;;
83190;SDS011;73087;49.924;22.080;2023-11-21T05:08:30;4.30;;;2.22;;
83190;SDS011;73087;49.924;22.080;2023-11-21T05:09:31;3.65;;;2.25;;
83190;SDS011;73087;49.924;22.080;2023-11-21T05:10:33;2.95;;;2.08;;
83190;SDS011;73087;49.924;22.080;2023-11-21T05:11:33;3.10;;;1.90;;
83190;SDS011;73087;49.924;22.080;2023-11-21T05:12:34;3.33;;;2.20;;
83190;SDS011;73087;49.924;22.080;2023-11-21T05:13:34;2.85;;;1.70;;
83190;SDS011;73087;49.924;22.080;2023-11-21T05:14:35;3.67;;;2.50;;
83190;SDS011;73087;49.924;22.080;2023-11-21T05:15:35;3.75;;;2.55;;
83190;SDS011;73087;49.924;22.080;2023-11-21T05:16:36;2.78;;;1.80;;
83190;SDS011;73087;49.924;22.080;2023-11-21T05:17:37;3.65;;;2.28;;
83190;SDS011;73087;49.924;22.080;2023-11-21T05:18:37;3.78;;;2.60;;
83190;SDS011;73087;49.924;22.080;2023-11-21T05:19:38;3.28;;;2.30;;
83190;SDS011;73087;49.924;22.080;2023-11-21T05:20:38;2.83;;;2.00;;
83190;SDS011;73087;49.924;22.080;2023-11-21T05:21:39;3.35;;;1.80;;
83190;SDS011;73087;49.924;22.080;2023-11-21T05:22:40;3.55;;;2.47;;
83190;SDS011;73087;49.924;22.080;2023-11-21T05:23:40;2.95;;;2.22;;
83190;SDS011;73087;49.924;22.080;2023-11-21T05:24:41;3.92;;;2.10;;
83190;SDS011;73087;49.924;22.080;2023-11-21T05:25:43;2.92;;;2.08;;
83190;SDS011;73087;49.924;22.080;2023-11-21T05:26:43;3.70;;;2.20;;
83190;SDS011;73087;49.924;22.080;2023-11-21T05:27:44;2.47;;;1.92;;
83190;SDS011;73087;49.924;22.080;2023-11-21T05:28:44;2.95;;;1.55;;
83190;SDS011;73087;49.924;22.080;2023-11-21T05:29:45;2.65;;;1.83;;
83190;SDS011;73087;49.924;22.080;2023-11-21T05:30:45;2.90;;;2.30;;
83190;SDS011;73087;49.924;22.080;2023-11-21T05:31:46;2.92;;;2.30;;
83190;SDS011;73087;49.924;22.080;2023-11-21T05:32:46;3.83;;;2.20;;
83190;SDS011;73087;49.924;22.080;2023-11-21T05:33:47;3.35;;;2.47;;
83190;SDS011;73087;49.924;22.080;2023-11-21T05:34:48;3.13;;;1.77;;
83190;SDS011;73087;49.924;22.080;2023-11-21T05:35:48;4.70;;;1.90;;
83190;SDS011;73087;49.924;22.080;2023-11-21T05:36:49;2.58;;;1.83;;
83190;SDS011;73087;49.924;22.080;2023-11-21T05:37:49;3.25;;;1.73;;
83190;SDS011;73087;49.924;22.080;2023-11-21T05:38:50;2.85;;;2.00;;
83190;SDS011;73087;49.924;22.080;2023-11-21T05:39:50;3.05;;;2.13;;
83190;SDS011;73087;49.924;22.080;2023-11-21T05:40:52;3.90;;;2.17;;
83190;SDS011;73087;49.924;22.080;2023-11-21T05:41:53;4.15;;;2.17;;
83190;SDS011;73087;49.924;22.080;2023-11-21T05:42:53;2.88;;;1.85;;
83190;SDS011;73087;49.924;22.080;2023-11-21T05:43:54;3.55;;;2.13;;
83190;SDS011;73087;49.924;22.080;2023-11-21T05:44:54;3.95;;;2.17;;
83190;SDS011;73087;49.924;22.080;2023-11-21T05:45:55;3.42;;;2.28;;
83190;SDS011;73087;49.924;22.080;2023-11-21T05:46:55;3.35;;;2.42;;
83190;SDS011;73087;49.924;22.080;2023-11-21T05:47:57;3.58;;;2.30;;
83190;SDS011;73087;49.924;22.080;2023-11-21T05:48:58;3.92;;;2.70;;
83190;SDS011;73087;49.924;22.080;2023-11-21T05:49:59;3.70;;;2.60;;
83190;SDS011;73087;49.924;22.080;2023-11-21T05:50:59;4.07;;;2.42;;
83190;SDS011;73087;49.924;22.080;2023-11-21T05:52:00;3.78;;;2.47;;
83190;SDS011;73087;49.924;22.080;2023-11-21T05:53:00;4.43;;;2.30;;
83190;SDS011;73087;49.924;22.080;2023-11-21T05:54:01;3.17;;;1.95;;
83190;SDS011;73087;49.924;22.080;2023-11-21T05:55:02;4.05;;;2.42;;
83190;SDS011;73087;49.924;22.080;2023-11-21T05:56:04;4.13;;;2.45;;
83190;SDS011;73087;49.924;22.080;2023-11-21T05:57:05;3.88;;;2.60;;
83190;SDS011;73087;49.924;22.080;2023-11-21T05:58:05;3.45;;;2.67;;
83190;SDS011;73087;49.924;22.080;2023-11-21T05:59:06;3.67;;;2.60;;
83190;SDS011;73087;49.924;22.080;2023-11-21T06:00:07;3.63;;;2.25;;